Plainfield, Illinois
Current Conditions -  °F | °C
As of 10:35 PM on Saturday 25 Oct 2014 (Local Time) from KLOT Reporting Station
Clear Clear  
Wind Chill: 51°   Ceiling: Unl
Heat Index: 51°   Visibility: 10mi
Dew Point: 32°   Wind: 7mph
Humidity: 48%   Direction: 310°NW
Pressure: 29.99"   Gusts: NA
Location:  41.62°N, 88.2°W
Report Text: KLOT 260335Z AUTO 31006KT 10SM CLR 11/00 A2999 RMK AO2 T01050000
Loading
Personal Weather Stations






























Interactive Weather Map
Tropical Storm Tracking
New forecast layout! Learn more

10-Day Weather Forecast

Advertisements
Track Severe Weather on mobile